sensor_id;sensor_type;location;lat;lon;timestamp;P1;durP1;ratioP1;P2;durP2;ratioP2
71003;SDS011;59025;42.050;-8.660;2022-10-31T00:00:08;8.20;;;2.80;;
71003;SDS011;59025;42.050;-8.660;2022-10-31T00:02:46;9.07;;;3.40;;
71003;SDS011;59025;42.050;-8.660;2022-10-31T00:05:17;8.70;;;3.13;;
71003;SDS011;59025;42.050;-8.660;2022-10-31T00:07:52;10.73;;;3.40;;
71003;SDS011;59025;42.050;-8.660;2022-10-31T00:10:24;20.92;;;6.55;;
71003;SDS011;59025;42.050;-8.660;2022-10-31T00:12:56;18.55;;;5.95;;
71003;SDS011;59025;42.050;-8.660;2022-10-31T00:15:27;18.75;;;6.07;;
71003;SDS011;59025;42.050;-8.660;2022-10-31T00:17:56;8.32;;;3.00;;
71003;SDS011;59025;42.050;-8.660;2022-10-31T00:20:25;10.10;;;3.50;;
71003;SDS011;59025;42.050;-8.660;2022-10-31T00:22:52;8.07;;;3.30;;
71003;SDS011;59025;42.050;-8.660;2022-10-31T00:25:20;7.05;;;2.90;;
71003;SDS011;59025;42.050;-8.660;2022-10-31T00:27:47;9.27;;;3.13;;
71003;SDS011;59025;42.050;-8.660;2022-10-31T00:30:15;9.95;;;2.70;;
71003;SDS011;59025;42.050;-8.660;2022-10-31T00:32:42;8.73;;;3.13;;
71003;SDS011;59025;42.050;-8.660;2022-10-31T00:35:11;9.02;;;3.78;;
71003;SDS011;59025;42.050;-8.660;2022-10-31T00:37:38;7.80;;;3.60;;
71003;SDS011;59025;42.050;-8.660;2022-10-31T00:40:06;10.20;;;4.22;;
71003;SDS011;59025;42.050;-8.660;2022-10-31T00:42:35;8.77;;;3.50;;
71003;SDS011;59025;42.050;-8.660;2022-10-31T00:45:04;9.93;;;3.77;;
71003;SDS011;59025;42.050;-8.660;2022-10-31T00:47:33;9.15;;;3.70;;
71003;SDS011;59025;42.050;-8.660;2022-10-31T00:50:00;8.88;;;3.67;;
71003;SDS011;59025;42.050;-8.660;2022-10-31T00:52:29;9.32;;;3.60;;
71003;SDS011;59025;42.050;-8.660;2022-10-31T00:54:56;7.32;;;3.00;;
71003;SDS011;59025;42.050;-8.660;2022-10-31T00:57:24;11.10;;;3.90;;
71003;SDS011;59025;42.050;-8.660;2022-10-31T00:59:51;8.35;;;3.47;;
71003;SDS011;59025;42.050;-8.660;2022-10-31T01:02:19;10.05;;;3.80;;
71003;SDS011;59025;42.050;-8.660;2022-10-31T01:04:46;9.68;;;4.13;;
71003;SDS011;59025;42.050;-8.660;2022-10-31T01:07:13;11.25;;;4.22;;
71003;SDS011;59025;42.050;-8.660;2022-10-31T01:09:42;13.00;;;4.97;;
71003;SDS011;59025;42.050;-8.660;2022-10-31T01:12:10;10.30;;;4.80;;
71003;SDS011;59025;42.050;-8.660;2022-10-31T01:14:37;14.63;;;4.53;;
71003;SDS011;59025;42.050;-8.660;2022-10-31T01:17:05;11.35;;;4.43;;
71003;SDS011;59025;42.050;-8.660;2022-10-31T01:19:32;10.93;;;4.20;;
71003;SDS011;59025;42.050;-8.660;2022-10-31T01:22:00;7.93;;;3.93;;
71003;SDS011;59025;42.050;-8.660;2022-10-31T01:24:27;10.23;;;3.63;;
71003;SDS011;59025;42.050;-8.660;2022-10-31T01:26:56;7.70;;;3.60;;
71003;SDS011;59025;42.050;-8.660;2022-10-31T01:29:23;11.98;;;3.60;;
71003;SDS011;59025;42.050;-8.660;2022-10-31T01:31:51;6.78;;;2.85;;
71003;SDS011;59025;42.050;-8.660;2022-10-31T01:34:18;10.30;;;3.27;;
71003;SDS011;59025;42.050;-8.660;2022-10-31T01:36:46;8.93;;;3.15;;
71003;SDS011;59025;42.050;-8.660;2022-10-31T01:39:16;11.82;;;3.63;;
71003;SDS011;59025;42.050;-8.660;2022-10-31T01:41:45;10.35;;;3.80;;
71003;SDS011;59025;42.050;-8.660;2022-10-31T01:50:12;8.15;;;2.90;;
71003;SDS011;59025;42.050;-8.660;2022-10-31T01:52:43;9.70;;;3.60;;
71003;SDS011;59025;42.050;-8.660;2022-10-31T01:55:13;10.02;;;3.35;;
71003;SDS011;59025;42.050;-8.660;2022-10-31T01:57:44;7.63;;;3.03;;
71003;SDS011;59025;42.050;-8.660;2022-10-31T02:00:16;6.97;;;3.00;;
71003;SDS011;59025;42.050;-8.660;2022-10-31T02:02:45;9.45;;;3.00;;
71003;SDS011;59025;42.050;-8.660;2022-10-31T02:05:16;8.05;;;2.83;;
71003;SDS011;59025;42.050;-8.660;2022-10-31T02:07:46;11.68;;;3.25;;
71003;SDS011;59025;42.050;-8.660;2022-10-31T02:10:18;8.98;;;3.45;;
71003;SDS011;59025;42.050;-8.660;2022-10-31T02:12:48;5.47;;;2.80;;
71003;SDS011;59025;42.050;-8.660;2022-10-31T02:15:18;7.82;;;3.30;;
71003;SDS011;59025;42.050;-8.660;2022-10-31T02:17:45;8.98;;;3.17;;
71003;SDS011;59025;42.050;-8.660;2022-10-31T02:20:15;8.30;;;3.42;;
71003;SDS011;59025;42.050;-8.660;2022-10-31T02:23:00;7.65;;;2.90;;
71003;SDS011;59025;42.050;-8.660;2022-10-31T02:26:01;7.97;;;3.33;;
71003;SDS011;59025;42.050;-8.660;2022-10-31T02:28:45;8.98;;;3.25;;
71003;SDS011;59025;42.050;-8.660;2022-10-31T02:31:31;7.97;;;2.58;;
71003;SDS011;59025;42.050;-8.660;2022-10-31T02:34:08;5.97;;;2.92;;
71003;SDS011;59025;42.050;-8.660;2022-10-31T02:36:46;6.70;;;2.50;;
71003;SDS011;59025;42.050;-8.660;2022-10-31T02:39:21;7.23;;;2.97;;
71003;SDS011;59025;42.050;-8.660;2022-10-31T02:41:53;10.52;;;4.00;;
71003;SDS011;59025;42.050;-8.660;2022-10-31T02:44:30;8.65;;;4.30;;
71003;SDS011;59025;42.050;-8.660;2022-10-31T02:47:05;11.23;;;4.00;;
71003;SDS011;59025;42.050;-8.660;2022-10-31T02:49:37;8.13;;;3.35;;
71003;SDS011;59025;42.050;-8.660;2022-10-31T02:52:13;7.70;;;3.20;;
71003;SDS011;59025;42.050;-8.660;2022-10-31T02:54:43;8.20;;;3.35;;
71003;SDS011;59025;42.050;-8.660;2022-10-31T02:57:12;10.43;;;3.70;;
71003;SDS011;59025;42.050;-8.660;2022-10-31T02:59:42;10.15;;;3.20;;
71003;SDS011;59025;42.050;-8.660;2022-10-31T03:05:11;6.53;;;2.43;;
71003;SDS011;59025;42.050;-8.660;2022-10-31T03:07:50;8.75;;;3.00;;
71003;SDS011;59025;42.050;-8.660;2022-10-31T03:10:25;8.65;;;2.88;;
71003;SDS011;59025;42.050;-8.660;2022-10-31T03:13:02;10.70;;;3.72;;
71003;SDS011;59025;42.050;-8.660;2022-10-31T03:15:36;11.50;;;3.60;;
71003;SDS011;59025;42.050;-8.660;2022-10-31T03:18:09;7.93;;;3.90;;
71003;SDS011;59025;42.050;-8.660;2022-10-31T03:20:43;9.40;;;3.75;;
71003;SDS011;59025;42.050;-8.660;2022-10-31T03:23:15;7.35;;;2.90;;
71003;SDS011;59025;42.050;-8.660;2022-10-31T03:25:45;8.18;;;3.60;;
71003;SDS011;59025;42.050;-8.660;2022-10-31T03:28:15;10.02;;;3.25;;
71003;SDS011;59025;42.050;-8.660;2022-10-31T03:30:45;8.23;;;3.00;;
71003;SDS011;59025;42.050;-8.660;2022-10-31T03:33:17;8.90;;;3.38;;
71003;SDS011;59025;42.050;-8.660;2022-10-31T03:35:50;8.75;;;2.45;;
71003;SDS011;59025;42.050;-8.660;2022-10-31T03:38:21;9.27;;;3.42;;
71003;SDS011;59025;42.050;-8.660;2022-10-31T03:40:49;7.05;;;2.40;;
71003;SDS011;59025;42.050;-8.660;2022-10-31T03:43:22;3.93;;;2.03;;
71003;SDS011;59025;42.050;-8.660;2022-10-31T03:45:53;3.30;;;1.58;;
71003;SDS011;59025;42.050;-8.660;2022-10-31T03:48:23;4.28;;;2.13;;
71003;SDS011;59025;42.050;-8.660;2022-10-31T03:50:52;4.22;;;1.80;;
71003;SDS011;59025;42.050;-8.660;2022-10-31T03:53:26;5.07;;;1.80;;
71003;SDS011;59025;42.050;-8.660;2022-10-31T03:55:57;4.63;;;1.80;;
71003;SDS011;59025;42.050;-8.660;2022-10-31T03:58:30;3.47;;;1.55;;
71003;SDS011;59025;42.050;-8.660;2022-10-31T04:01:02;3.80;;;1.38;;
71003;SDS011;59025;42.050;-8.660;2022-10-31T04:03:34;4.57;;;1.50;;
71003;SDS011;59025;42.050;-8.660;2022-10-31T04:06:05;5.20;;;1.90;;
71003;SDS011;59025;42.050;-8.660;2022-10-31T04:08:37;5.13;;;1.93;;
71003;SDS011;59025;42.050;-8.660;2022-10-31T04:11:09;6.75;;;2.15;;
71003;SDS011;59025;42.050;-8.660;2022-10-31T04:13:40;5.05;;;2.03;;
71003;SDS011;59025;42.050;-8.660;2022-10-31T04:16:11;2.60;;;1.50;;
71003;SDS011;59025;42.050;-8.660;2022-10-31T04:18:42;6.93;;;1.85;;
71003;SDS011;59025;42.050;-8.660;2022-10-31T04:21:09;7.30;;;1.70;;
71003;SDS011;59025;42.050;-8.660;2022-10-31T04:23:37;3.50;;;1.58;;
71003;SDS011;59025;42.050;-8.660;2022-10-31T04:26:04;5.38;;;1.90;;
71003;SDS011;59025;42.050;-8.660;2022-10-31T04:28:32;5.20;;;1.90;;
71003;SDS011;59025;42.050;-8.660;2022-10-31T04:30:59;9.05;;;2.30;;
71003;SDS011;59025;42.050;-8.660;2022-10-31T04:33:27;5.10;;;1.73;;
71003;SDS011;59025;42.050;-8.660;2022-10-31T04:35:56;3.58;;;1.83;;
71003;SDS011;59025;42.050;-8.660;2022-10-31T04:38:23;4.93;;;1.80;;
71003;SDS011;59025;42.050;-8.660;2022-10-31T04:40:51;4.85;;;1.60;;
71003;SDS011;59025;42.050;-8.660;2022-10-31T04:43:18;4.00;;;1.70;;
71003;SDS011;59025;42.050;-8.660;2022-10-31T04:45:45;4.87;;;1.70;;
71003;SDS011;59025;42.050;-8.660;2022-10-31T04:48:13;4.28;;;1.83;;
71003;SDS011;59025;42.050;-8.660;2022-10-31T04:50:40;3.65;;;1.65;;
71003;SDS011;59025;42.050;-8.660;2022-10-31T04:53:09;3.20;;;1.70;;
71003;SDS011;59025;42.050;-8.660;2022-10-31T04:55:37;2.10;;;1.30;;
71003;SDS011;59025;42.050;-8.660;2022-10-31T04:58:04;5.17;;;1.60;;
71003;SDS011;59025;42.050;-8.660;2022-10-31T05:00:32;2.90;;;1.60;;
71003;SDS011;59025;42.050;-8.660;2022-10-31T05:02:59;3.97;;;1.77;;
71003;SDS011;59025;42.050;-8.660;2022-10-31T05:05:28;6.65;;;1.92;;
71003;SDS011;59025;42.050;-8.660;2022-10-31T05:07:56;3.40;;;1.75;;
71003;SDS011;59025;42.050;-8.660;2022-10-31T05:10:26;3.97;;;1.60;;
71003;SDS011;59025;42.050;-8.660;2022-10-31T05:12:55;3.92;;;1.60;;
71003;SDS011;59025;42.050;-8.660;2022-10-31T05:15:23;2.72;;;1.70;;
71003;SDS011;59025;42.050;-8.660;2022-10-31T05:17:52;6.25;;;1.77;;
71003;SDS011;59025;42.050;-8.660;2022-10-31T05:20:21;5.80;;;1.80;;
71003;SDS011;59025;42.050;-8.660;2022-10-31T05:22:51;3.73;;;1.60;;
71003;SDS011;59025;42.050;-8.660;2022-10-31T05:25:21;7.88;;;2.00;;
71003;SDS011;59025;42.050;-8.660;2022-10-31T05:27:51;2.97;;;1.70;;
71003;SDS011;59025;42.050;-8.660;2022-10-31T05:30:20;4.13;;;1.65;;
71003;SDS011;59025;42.050;-8.660;2022-10-31T05:32:51;4.72;;;1.73;;
71003;SDS011;59025;42.050;-8.660;2022-10-31T05:35:20;3.57;;;1.63;;
71003;SDS011;59025;42.050;-8.660;2022-10-31T05:37:48;4.03;;;1.50;;
71003;SDS011;59025;42.050;-8.660;2022-10-31T05:40:17;3.78;;;1.70;;
71003;SDS011;59025;42.050;-8.660;2022-10-31T05:42:46;5.28;;;1.70;;
71003;SDS011;59025;42.050;-8.660;2022-10-31T05:45:16;3.22;;;1.30;;
71003;SDS011;59025;42.050;-8.660;2022-10-31T05:47:49;3.07;;;1.20;;
71003;SDS011;59025;42.050;-8.660;2022-10-31T05:50:17;2.85;;;1.50;;
71003;SDS011;59025;42.050;-8.660;2022-10-31T05:52:45;1.88;;;1.10;;
71003;SDS011;59025;42.050;-8.660;2022-10-31T05:55:12;2.30;;;1.30;;
71003;SDS011;59025;42.050;-8.660;2022-10-31T05:57:40;2.88;;;1.20;;
71003;SDS011;59025;42.050;-8.660;2022-10-31T06:00:08;2.27;;;1.10;;
71003;SDS011;59025;42.050;-8.660;2022-10-31T06:02:37;1.80;;;1.05;;
71003;SDS011;59025;42.050;-8.660;2022-10-31T06:05:05;2.83;;;1.27;;
71003;SDS011;59025;42.050;-8.660;2022-10-31T06:07:33;2.53;;;0.90;;
71003;SDS011;59025;42.050;-8.660;2022-10-31T06:10:00;1.50;;;0.90;;
71003;SDS011;59025;42.050;-8.660;2022-10-31T06:12:29;1.33;;;0.90;;
71003;SDS011;59025;42.050;-8.660;2022-10-31T06:14:56;1.00;;;0.80;;
71003;SDS011;59025;42.050;-8.660;2022-10-31T06:17:24;1.15;;;0.77;;
71003;SDS011;59025;42.050;-8.660;2022-10-31T06:19:53;1.63;;;0.75;;
71003;SDS011;59025;42.050;-8.660;2022-10-31T06:22:20;1.00;;;0.80;;
71003;SDS011;59025;42.050;-8.660;2022-10-31T06:24:48;2.67;;;0.70;;
71003;SDS011;59025;42.050;-8.660;2022-10-31T06:27:15;0.98;;;0.85;;
71003;SDS011;59025;42.050;-8.660;2022-10-31T06:29:43;1.90;;;0.85;;
71003;SDS011;59025;42.050;-8.660;2022-10-31T06:32:11;3.83;;;1.20;;
71003;SDS011;59025;42.050;-8.660;2022-10-31T06:34:39;1.98;;;1.00;;
71003;SDS011;59025;42.050;-8.660;2022-10-31T06:37:14;1.67;;;1.10;;
71003;SDS011;59025;42.050;-8.660;2022-10-31T06:39:42;2.63;;;0.90;;
71003;SDS011;59025;42.050;-8.660;2022-10-31T06:42:10;2.42;;;0.93;;
71003;SDS011;59025;42.050;-8.660;2022-10-31T06:44:39;2.67;;;1.10;;
71003;SDS011;59025;42.050;-8.660;2022-10-31T06:47:08;2.83;;;1.10;;
71003;SDS011;59025;42.050;-8.660;2022-10-31T06:49:35;3.07;;;1.40;;
71003;SDS011;59025;42.050;-8.660;2022-10-31T06:52:03;3.85;;;1.20;;
71003;SDS011;59025;42.050;-8.660;2022-10-31T06:54:33;2.63;;;1.83;;
71003;SDS011;59025;42.050;-8.660;2022-10-31T06:57:00;4.03;;;1.35;;
71003;SDS011;59025;42.050;-8.660;2022-10-31T06:59:28;4.05;;;1.25;;
71003;SDS011;59025;42.050;-8.660;2022-10-31T07:01:57;4.03;;;1.53;;
71003;SDS011;59025;42.050;-8.660;2022-10-31T07:04:25;3.28;;;1.30;;
71003;SDS011;59025;42.050;-8.660;2022-10-31T07:06:52;4.25;;;1.70;;
71003;SDS011;59025;42.050;-8.660;2022-10-31T07:09:20;3.53;;;1.30;;
71003;SDS011;59025;42.050;-8.660;2022-10-31T07:11:51;3.42;;;1.50;;
71003;SDS011;59025;42.050;-8.660;2022-10-31T07:14:19;3.33;;;1.20;;
71003;SDS011;59025;42.050;-8.660;2022-10-31T07:16:47;7.05;;;1.50;;
71003;SDS011;59025;42.050;-8.660;2022-10-31T07:19:16;5.95;;;1.48;;
71003;SDS011;59025;42.050;-8.660;2022-10-31T07:21:44;5.07;;;1.90;;
71003;SDS011;59025;42.050;-8.660;2022-10-31T07:24:12;4.47;;;1.58;;
71003;SDS011;59025;42.050;-8.660;2022-10-31T07:26:39;6.07;;;1.57;;
71003;SDS011;59025;42.050;-8.660;2022-10-31T07:29:09;6.57;;;1.83;;
71003;SDS011;59025;42.050;-8.660;2022-10-31T07:31:36;7.85;;;1.73;;
71003;SDS011;59025;42.050;-8.660;2022-10-31T07:34:03;6.30;;;1.50;;
71003;SDS011;59025;42.050;-8.660;2022-10-31T07:36:31;4.95;;;1.50;;
71003;SDS011;59025;42.050;-8.660;2022-10-31T07:38:58;7.70;;;1.60;;
71003;SDS011;59025;42.050;-8.660;2022-10-31T07:41:27;8.00;;;1.98;;
71003;SDS011;59025;42.050;-8.660;2022-10-31T07:43:54;12.93;;;2.10;;
71003;SDS011;59025;42.050;-8.660;2022-10-31T07:46:23;5.20;;;1.55;;
71003;SDS011;59025;42.050;-8.660;2022-10-31T07:48:51;8.77;;;1.90;;
71003;SDS011;59025;42.050;-8.660;2022-10-31T07:51:18;9.33;;;1.60;;
71003;SDS011;59025;42.050;-8.660;2022-10-31T07:53:46;7.68;;;2.22;;
71003;SDS011;59025;42.050;-8.660;2022-10-31T07:56:13;7.00;;;1.92;;
71003;SDS011;59025;42.050;-8.660;2022-10-31T07:58:41;6.20;;;1.65;;
71003;SDS011;59025;42.050;-8.660;2022-10-31T08:01:08;11.48;;;1.92;;
71003;SDS011;59025;42.050;-8.660;2022-10-31T08:03:37;9.70;;;2.07;;
71003;SDS011;59025;42.050;-8.660;2022-10-31T08:06:05;7.75;;;1.70;;
71003;SDS011;59025;42.050;-8.660;2022-10-31T08:08:33;10.07;;;2.00;;
71003;SDS011;59025;42.050;-8.660;2022-10-31T08:11:02;6.55;;;1.90;;
71003;SDS011;59025;42.050;-8.660;2022-10-31T08:13:31;13.68;;;2.47;;
71003;SDS011;59025;42.050;-8.660;2022-10-31T08:15:59;15.77;;;2.33;;
71003;SDS011;59025;42.050;-8.660;2022-10-31T08:18:29;9.38;;;2.30;;
71003;SDS011;59025;42.050;-8.660;2022-10-31T08:20:58;12.52;;;2.13;;
71003;SDS011;59025;42.050;-8.660;2022-10-31T08:23:26;11.52;;;2.28;;
71003;SDS011;59025;42.050;-8.660;2022-10-31T08:25:53;13.40;;;2.60;;
71003;SDS011;59025;42.050;-8.660;2022-10-31T08:28:20;13.57;;;2.10;;
71003;SDS011;59025;42.050;-8.660;2022-10-31T08:30:48;13.20;;;2.15;;
71003;SDS011;59025;42.050;-8.660;2022-10-31T08:33:16;16.30;;;2.40;;
71003;SDS011;59025;42.050;-8.660;2022-10-31T08:35:44;12.40;;;3.03;;
71003;SDS011;59025;42.050;-8.660;2022-10-31T08:38:14;15.50;;;2.28;;
71003;SDS011;59025;42.050;-8.660;2022-10-31T08:40:41;11.43;;;1.83;;
71003;SDS011;59025;42.050;-8.660;2022-10-31T08:43:10;17.52;;;2.35;;
71003;SDS011;59025;42.050;-8.660;2022-10-31T08:45:39;16.45;;;2.30;;
71003;SDS011;59025;42.050;-8.660;2022-10-31T08:48:08;15.18;;;2.50;;
71003;SDS011;59025;42.050;-8.660;2022-10-31T08:50:38;16.55;;;2.33;;
71003;SDS011;59025;42.050;-8.660;2022-10-31T08:53:06;16.10;;;1.90;;
71003;SDS011;59025;42.050;-8.660;2022-10-31T08:55:36;23.80;;;2.95;;
71003;SDS011;59025;42.050;-8.660;2022-10-31T08:58:05;15.82;;;2.75;;
71003;SDS011;59025;42.050;-8.660;2022-10-31T09:00:34;10.20;;;1.63;;
71003;SDS011;59025;42.050;-8.660;2022-10-31T09:03:04;21.00;;;3.40;;
71003;SDS011;59025;42.050;-8.660;2022-10-31T09:05:32;16.33;;;2.50;;
71003;SDS011;59025;42.050;-8.660;2022-10-31T09:08:01;10.32;;;1.52;;
71003;SDS011;59025;42.050;-8.660;2022-10-31T09:10:32;10.30;;;1.60;;
71003;SDS011;59025;42.050;-8.660;2022-10-31T09:13:04;15.57;;;2.75;;
71003;SDS011;59025;42.050;-8.660;2022-10-31T09:15:34;12.10;;;2.33;;
71003;SDS011;59025;42.050;-8.660;2022-10-31T09:18:06;12.93;;;1.73;;
71003;SDS011;59025;42.050;-8.660;2022-10-31T09:20:35;11.55;;;1.45;;
71003;SDS011;59025;42.050;-8.660;2022-10-31T09:23:04;11.32;;;3.20;;
71003;SDS011;59025;42.050;-8.660;2022-10-31T09:25:33;9.38;;;1.35;;
71003;SDS011;59025;42.050;-8.660;2022-10-31T09:28:03;12.25;;;1.70;;
71003;SDS011;59025;42.050;-8.660;2022-10-31T09:30:32;10.37;;;1.57;;
71003;SDS011;59025;42.050;-8.660;2022-10-31T09:33:01;10.02;;;1.13;;
71003;SDS011;59025;42.050;-8.660;2022-10-31T09:35:29;6.97;;;1.25;;
71003;SDS011;59025;42.050;-8.660;2022-10-31T09:37:58;10.77;;;1.40;;
71003;SDS011;59025;42.050;-8.660;2022-10-31T09:40:29;10.10;;;1.40;;
71003;SDS011;59025;42.050;-8.660;2022-10-31T09:43:01;9.77;;;2.00;;
71003;SDS011;59025;42.050;-8.660;2022-10-31T09:45:36;15.50;;;1.90;;
71003;SDS011;59025;42.050;-8.660;2022-10-31T09:48:17;9.75;;;1.95;;
71003;SDS011;59025;42.050;-8.660;2022-10-31T09:51:03;22.02;;;2.40;;
71003;SDS011;59025;42.050;-8.660;2022-10-31T09:53:36;16.05;;;1.80;;
71003;SDS011;59025;42.050;-8.660;2022-10-31T09:56:07;16.47;;;2.00;;
71003;SDS011;59025;42.050;-8.660;2022-10-31T09:58:41;9.85;;;1.50;;
71003;SDS011;59025;42.050;-8.660;2022-10-31T10:01:19;9.40;;;1.50;;
71003;SDS011;59025;42.050;-8.660;2022-10-31T10:03:56;8.93;;;1.20;;
71003;SDS011;59025;42.050;-8.660;2022-10-31T10:06:28;7.85;;;1.48;;
71003;SDS011;59025;42.050;-8.660;2022-10-31T10:08:59;6.57;;;1.20;;
71003;SDS011;59025;42.050;-8.660;2022-10-31T10:11:30;9.88;;;1.35;;
71003;SDS011;59025;42.050;-8.660;2022-10-31T10:14:13;10.25;;;1.30;;
71003;SDS011;59025;42.050;-8.660;2022-10-31T10:16:56;8.55;;;1.25;;
71003;SDS011;59025;42.050;-8.660;2022-10-31T10:19:44;7.68;;;1.13;;
71003;SDS011;59025;42.050;-8.660;2022-10-31T10:22:31;5.10;;;1.43;;
71003;SDS011;59025;42.050;-8.660;2022-10-31T10:25:16;9.15;;;2.00;;
71003;SDS011;59025;42.050;-8.660;2022-10-31T10:27:57;10.57;;;2.35;;
71003;SDS011;59025;42.050;-8.660;2022-10-31T10:30:32;9.38;;;2.60;;
71003;SDS011;59025;42.050;-8.660;2022-10-31T10:33:05;11.60;;;3.00;;
71003;SDS011;59025;42.050;-8.660;2022-10-31T10:35:38;9.97;;;3.57;;
71003;SDS011;59025;42.050;-8.660;2022-10-31T10:38:12;6.63;;;1.40;;
71003;SDS011;59025;42.050;-8.660;2022-10-31T10:40:46;8.05;;;2.35;;
71003;SDS011;59025;42.050;-8.660;2022-10-31T10:43:22;5.82;;;1.80;;
71003;SDS011;59025;42.050;-8.660;2022-10-31T10:45:55;4.95;;;1.30;;
71003;SDS011;59025;42.050;-8.660;2022-10-31T10:48:51;4.73;;;1.43;;
71003;SDS011;59025;42.050;-8.660;2022-10-31T10:51:27;3.67;;;1.00;;
71003;SDS011;59025;42.050;-8.660;2022-10-31T10:54:08;4.32;;;1.05;;
71003;SDS011;59025;42.050;-8.660;2022-10-31T10:56:50;3.55;;;0.90;;
71003;SDS011;59025;42.050;-8.660;2022-10-31T10:59:23;5.38;;;1.90;;
71003;SDS011;59025;42.050;-8.660;2022-10-31T11:01:53;2.30;;;0.87;;
71003;SDS011;59025;42.050;-8.660;2022-10-31T11:04:25;2.75;;;1.00;;
71003;SDS011;59025;42.050;-8.660;2022-10-31T11:07:02;9.23;;;1.80;;
71003;SDS011;59025;42.050;-8.660;2022-10-31T11:09:31;7.10;;;1.70;;
71003;SDS011;59025;42.050;-8.660;2022-10-31T11:11:59;7.57;;;1.80;;
71003;SDS011;59025;42.050;-8.660;2022-10-31T11:14:34;5.60;;;1.37;;
71003;SDS011;59025;42.050;-8.660;2022-10-31T11:17:11;5.55;;;1.10;;
71003;SDS011;59025;42.050;-8.660;2022-10-31T11:19:46;13.27;;;1.90;;
71003;SDS011;59025;42.050;-8.660;2022-10-31T11:22:14;10.43;;;1.75;;
71003;SDS011;59025;42.050;-8.660;2022-10-31T11:24:43;16.15;;;2.33;;
71003;SDS011;59025;42.050;-8.660;2022-10-31T11:27:13;15.47;;;2.10;;
71003;SDS011;59025;42.050;-8.660;2022-10-31T11:29:43;10.70;;;1.92;;
71003;SDS011;59025;42.050;-8.660;2022-10-31T11:32:22;10.95;;;1.88;;
71003;SDS011;59025;42.050;-8.660;2022-10-31T11:34:52;10.75;;;1.95;;
71003;SDS011;59025;42.050;-8.660;2022-10-31T11:37:21;10.40;;;2.10;;
71003;SDS011;59025;42.050;-8.660;2022-10-31T11:39:52;12.57;;;2.20;;
71003;SDS011;59025;42.050;-8.660;2022-10-31T11:42:22;16.05;;;2.28;;
71003;SDS011;59025;42.050;-8.660;2022-10-31T11:44:52;14.23;;;1.98;;
71003;SDS011;59025;42.050;-8.660;2022-10-31T11:47:24;17.38;;;2.22;;
71003;SDS011;59025;42.050;-8.660;2022-10-31T11:49:54;15.95;;;2.10;;
71003;SDS011;59025;42.050;-8.660;2022-10-31T11:52:24;16.47;;;1.60;;
71003;SDS011;59025;42.050;-8.660;2022-10-31T11:54:54;13.32;;;2.13;;
71003;SDS011;59025;42.050;-8.660;2022-10-31T11:57:25;13.02;;;2.35;;
71003;SDS011;59025;42.050;-8.660;2022-10-31T11:59:54;11.85;;;1.88;;
71003;SDS011;59025;42.050;-8.660;2022-10-31T12:02:24;13.35;;;2.03;;
71003;SDS011;59025;42.050;-8.660;2022-10-31T12:04:58;14.13;;;1.87;;
71003;SDS011;59025;42.050;-8.660;2022-10-31T12:07:30;13.35;;;2.63;;
71003;SDS011;59025;42.050;-8.660;2022-10-31T12:09:58;12.85;;;2.20;;
71003;SDS011;59025;42.050;-8.660;2022-10-31T12:12:30;13.75;;;2.30;;
71003;SDS011;59025;42.050;-8.660;2022-10-31T12:15:11;12.95;;;1.88;;
71003;SDS011;59025;42.050;-8.660;2022-10-31T12:18:09;9.77;;;2.10;;
71003;SDS011;59025;42.050;-8.660;2022-10-31T12:20:56;13.00;;;1.60;;
71003;SDS011;59025;42.050;-8.660;2022-10-31T12:23:41;14.68;;;2.78;;
71003;SDS011;59025;42.050;-8.660;2022-10-31T12:26:17;11.48;;;2.05;;
71003;SDS011;59025;42.050;-8.660;2022-10-31T12:28:56;10.60;;;1.88;;
71003;SDS011;59025;42.050;-8.660;2022-10-31T12:31:36;12.60;;;1.93;;
71003;SDS011;59025;42.050;-8.660;2022-10-31T12:34:26;13.02;;;1.77;;
71003;SDS011;59025;42.050;-8.660;2022-10-31T12:37:10;15.75;;;1.95;;
71003;SDS011;59025;42.050;-8.660;2022-10-31T12:39:52;9.63;;;1.80;;
71003;SDS011;59025;42.050;-8.660;2022-10-31T12:42:33;11.55;;;1.88;;
71003;SDS011;59025;42.050;-8.660;2022-10-31T12:45:15;14.67;;;2.13;;
71003;SDS011;59025;42.050;-8.660;2022-10-31T12:47:57;10.93;;;1.92;;
71003;SDS011;59025;42.050;-8.660;2022-10-31T12:50:43;12.73;;;1.70;;
71003;SDS011;59025;42.050;-8.660;2022-10-31T12:53:25;11.15;;;1.63;;
71003;SDS011;59025;42.050;-8.660;2022-10-31T12:56:05;14.48;;;1.85;;
71003;SDS011;59025;42.050;-8.660;2022-10-31T13:01:55;17.20;;;2.53;;
71003;SDS011;59025;42.050;-8.660;2022-10-31T13:04:31;12.48;;;1.58;;
71003;SDS011;59025;42.050;-8.660;2022-10-31T13:07:09;14.30;;;1.90;;
71003;SDS011;59025;42.050;-8.660;2022-10-31T13:09:43;15.25;;;1.73;;
71003;SDS011;59025;42.050;-8.660;2022-10-31T13:12:17;16.83;;;3.00;;
71003;SDS011;59025;42.050;-8.660;2022-10-31T13:14:48;17.38;;;2.67;;
71003;SDS011;59025;42.050;-8.660;2022-10-31T13:17:20;15.93;;;2.00;;
71003;SDS011;59025;42.050;-8.660;2022-10-31T13:19:53;16.58;;;2.25;;
71003;SDS011;59025;42.050;-8.660;2022-10-31T13:22:31;19.95;;;2.20;;
71003;SDS011;59025;42.050;-8.660;2022-10-31T13:25:03;12.20;;;2.77;;
71003;SDS011;59025;42.050;-8.660;2022-10-31T13:27:41;11.30;;;2.00;;
71003;SDS011;59025;42.050;-8.660;2022-10-31T13:30:14;10.68;;;1.83;;
71003;SDS011;59025;42.050;-8.660;2022-10-31T13:32:44;17.42;;;2.17;;
71003;SDS011;59025;42.050;-8.660;2022-10-31T13:35:24;13.65;;;2.00;;
71003;SDS011;59025;42.050;-8.660;2022-10-31T13:38:01;16.63;;;1.90;;
71003;SDS011;59025;42.050;-8.660;2022-10-31T13:40:38;11.23;;;2.03;;
71003;SDS011;59025;42.050;-8.660;2022-10-31T13:43:15;12.00;;;1.73;;
71003;SDS011;59025;42.050;-8.660;2022-10-31T13:45:53;17.27;;;1.98;;
71003;SDS011;59025;42.050;-8.660;2022-10-31T13:48:34;13.75;;;2.17;;
71003;SDS011;59025;42.050;-8.660;2022-10-31T13:51:07;12.00;;;1.63;;
71003;SDS011;59025;42.050;-8.660;2022-10-31T13:53:44;15.77;;;1.92;;
71003;SDS011;59025;42.050;-8.660;2022-10-31T13:56:24;11.93;;;1.83;;
71003;SDS011;59025;42.050;-8.660;2022-10-31T13:59:04;12.13;;;3.17;;
71003;SDS011;59025;42.050;-8.660;2022-10-31T14:01:51;9.70;;;1.98;;
71003;SDS011;59025;42.050;-8.660;2022-10-31T14:04:22;6.97;;;1.40;;
71003;SDS011;59025;42.050;-8.660;2022-10-31T14:06:53;8.07;;;1.42;;
71003;SDS011;59025;42.050;-8.660;2022-10-31T14:09:26;12.35;;;1.17;;
71003;SDS011;59025;42.050;-8.660;2022-10-31T14:11:57;11.20;;;1.00;;
71003;SDS011;59025;42.050;-8.660;2022-10-31T14:14:41;6.57;;;1.40;;
71003;SDS011;59025;42.050;-8.660;2022-10-31T14:17:18;10.00;;;2.10;;
71003;SDS011;59025;42.050;-8.660;2022-10-31T14:19:59;11.60;;;1.38;;
71003;SDS011;59025;42.050;-8.660;2022-10-31T14:22:30;12.00;;;1.88;;
71003;SDS011;59025;42.050;-8.660;2022-10-31T14:28:19;10.30;;;1.67;;
71003;SDS011;59025;42.050;-8.660;2022-10-31T14:30:51;13.57;;;2.30;;
71003;SDS011;59025;42.050;-8.660;2022-10-31T14:33:19;6.63;;;1.30;;
71003;SDS011;59025;42.050;-8.660;2022-10-31T14:35:51;5.55;;;1.10;;
71003;SDS011;59025;42.050;-8.660;2022-10-31T14:38:36;9.13;;;1.38;;
71003;SDS011;59025;42.050;-8.660;2022-10-31T14:41:28;9.60;;;1.30;;
71003;SDS011;59025;42.050;-8.660;2022-10-31T14:47:15;9.23;;;1.80;;
71003;SDS011;59025;42.050;-8.660;2022-10-31T14:52:42;10.75;;;1.40;;
71003;SDS011;59025;42.050;-8.660;2022-10-31T14:55:15;11.23;;;1.38;;
71003;SDS011;59025;42.050;-8.660;2022-10-31T14:57:46;10.67;;;1.50;;
71003;SDS011;59025;42.050;-8.660;2022-10-31T15:00:19;10.88;;;1.50;;
71003;SDS011;59025;42.050;-8.660;2022-10-31T15:02:51;10.20;;;1.30;;
71003;SDS011;59025;42.050;-8.660;2022-10-31T15:05:27;14.27;;;1.73;;
71003;SDS011;59025;42.050;-8.660;2022-10-31T15:07:56;16.45;;;2.30;;
71003;SDS011;59025;42.050;-8.660;2022-10-31T15:10:25;12.17;;;1.90;;
71003;SDS011;59025;42.050;-8.660;2022-10-31T15:12:55;12.75;;;1.73;;
71003;SDS011;59025;42.050;-8.660;2022-10-31T15:15:24;11.90;;;1.80;;